createdAt,value
2022-12-16T00:00:11.981Z,51.70
2022-12-16T00:02:39.286Z,46.40
2022-12-16T00:05:07.506Z,49.77
2022-12-16T00:07:35.715Z,49.57
2022-12-16T00:10:03.652Z,52.43
2022-12-16T00:12:33.386Z,49.90
2022-12-16T00:15:00.931Z,49.37
2022-12-16T00:17:28.205Z,48.13
2022-12-16T00:19:55.433Z,53.47
2022-12-16T00:22:23.837Z,51.93
2022-12-16T00:24:54.478Z,47.07
2022-12-16T00:27:22.622Z,44.60
2022-12-16T00:29:53.057Z,51.20
2022-12-16T00:32:21.537Z,44.63
2022-12-16T00:35:00.614Z,46.87
2022-12-16T00:37:28.406Z,48.30
2022-12-16T00:39:56.959Z,48.13
2022-12-16T00:42:24.052Z,49.90
2022-12-16T00:44:57.403Z,49.47
2022-12-16T00:47:30.767Z,46.97
2022-12-16T00:50:08.493Z,47.17
2022-12-16T00:52:35.972Z,48.93
2022-12-16T00:55:03.885Z,48.57
2022-12-16T00:57:31.423Z,54.70
2022-12-16T01:00:05.364Z,52.47
2022-12-16T01:02:33.202Z,47.90
2022-12-16T01:05:28.537Z,53.70
2022-12-16T01:12:15.886Z,53.60
2022-12-16T01:23:18.522Z,48.90
2022-12-16T01:30:27.327Z,47.93
2022-12-16T01:33:20.589Z,45.27
2022-12-16T01:35:55.423Z,48.30
2022-12-16T01:39:07.722Z,47.83
2022-12-16T01:46:27.518Z,44.47
2022-12-16T01:52:04.677Z,49.50
2022-12-16T01:54:55.225Z,49.37
2022-12-16T01:58:15.308Z,45.97
2022-12-16T02:00:43.127Z,52.33
2022-12-16T02:03:53.767Z,44.67
2022-12-16T02:15:35.031Z,47.77
2022-12-16T02:52:14.267Z,42.83
2022-12-16T02:59:06.413Z,47.00
2022-12-16T03:09:57.977Z,45.67
2022-12-16T03:25:41.964Z,42.20
2022-12-16T03:29:40.252Z,45.50
2022-12-16T03:37:44.430Z,51.37
2022-12-16T03:40:49.047Z,50.50
2022-12-16T03:43:33.426Z,48.90
2022-12-16T03:53:21.907Z,51.73
2022-12-16T03:56:14.247Z,47.23
2022-12-16T03:58:59.897Z,50.63
2022-12-16T04:02:03.385Z,47.07
2022-12-16T04:04:43.491Z,45.53
2022-12-16T04:08:10.480Z,50.17
2022-12-16T04:11:46.696Z,50.73
2022-12-16T04:15:09.441Z,44.83
2022-12-16T04:18:44.214Z,49.73
2022-12-16T04:26:15.508Z,51.30
2022-12-16T04:30:00.409Z,52.90
2022-12-16T04:32:55.521Z,52.83
2022-12-16T04:39:48.596Z,54.40
2022-12-16T04:43:17.574Z,68.10
2022-12-16T04:46:05.881Z,67.80
2022-12-16T04:53:43.752Z,68.37
2022-12-16T04:57:06.736Z,79.73
2022-12-16T05:00:42.780Z,74.97
2022-12-16T05:03:55.950Z,84.57
2022-12-16T05:06:51.170Z,82.83
2022-12-16T05:09:49.145Z,79.13
2022-12-16T05:12:44.356Z,85.60
2022-12-16T05:15:30.369Z,86.20
2022-12-16T05:18:16.018Z,89.97
2022-12-16T05:21:07.954Z,96.43
2022-12-16T05:23:57.952Z,96.67
2022-12-16T05:26:43.886Z,108.20
2022-12-16T05:29:29.872Z,95.40
2022-12-16T05:32:15.627Z,99.03
2022-12-16T05:35:01.625Z,96.27
2022-12-16T05:37:47.845Z,109.23
2022-12-16T05:40:36.712Z,96.97
2022-12-16T05:43:22.802Z,100.93
2022-12-16T05:46:08.759Z,94.77
2022-12-16T05:48:54.133Z,103.00
2022-12-16T05:51:40.428Z,95.03
2022-12-16T05:54:28.706Z,94.53
2022-12-16T05:57:14.592Z,93.67
2022-12-16T06:00:00.803Z,99.77
2022-12-16T06:02:46.635Z,91.97
2022-12-16T06:05:32.809Z,94.33
2022-12-16T06:08:18.655Z,87.07
2022-12-16T06:11:07.402Z,81.87
2022-12-16T06:13:53.282Z,86.13
2022-12-16T06:16:39.181Z,86.93
2022-12-16T06:19:25.128Z,79.20
2022-12-16T06:22:11.030Z,94.67
2022-12-16T06:24:56.890Z,84.17
2022-12-16T06:27:42.659Z,76.20
2022-12-16T06:30:29.723Z,79.80
2022-12-16T06:33:15.611Z,85.80
2022-12-16T06:36:00.992Z,82.30
2022-12-16T06:38:47.199Z,78.93
2022-12-16T06:41:32.910Z,84.00
2022-12-16T06:44:18.876Z,79.47
2022-12-16T06:47:04.238Z,81.10
2022-12-16T06:49:49.966Z,79.17
2022-12-16T06:52:35.911Z,76.13
2022-12-16T06:55:21.721Z,78.90
2022-12-16T06:58:10.104Z,81.37
2022-12-16T07:00:56.227Z,72.70
2022-12-16T07:03:42.500Z,76.40
2022-12-16T07:06:28.989Z,69.47
2022-12-16T07:09:14.615Z,72.27
2022-12-16T07:12:00.461Z,72.87
2022-12-16T07:14:46.457Z,66.17
2022-12-16T07:17:32.167Z,66.37
2022-12-16T07:20:18.030Z,66.93
2022-12-16T07:23:12.179Z,67.03
2022-12-16T07:26:03.659Z,59.57
2022-12-16T07:28:49.668Z,60.30
2022-12-16T07:31:35.483Z,58.73
2022-12-16T07:34:21.480Z,68.67
2022-12-16T07:37:07.254Z,58.73
2022-12-16T07:39:55.348Z,61.17
2022-12-16T07:42:42.467Z,60.13
2022-12-16T07:45:29.525Z,59.80
2022-12-16T07:48:15.532Z,61.43
2022-12-16T07:51:01.671Z,54.17
2022-12-16T07:53:47.682Z,58.03
2022-12-16T07:56:33.469Z,55.50
2022-12-16T07:59:22.038Z,62.37
2022-12-16T08:02:08.047Z,59.67
2022-12-16T08:04:54.451Z,60.50
2022-12-16T08:07:41.718Z,67.93
2022-12-16T08:10:28.253Z,62.97
2022-12-16T08:13:32.236Z,63.90
2022-12-16T08:16:18.135Z,67.27
2022-12-16T08:19:09.056Z,58.20
2022-12-16T08:21:57.202Z,62.77
2022-12-16T08:24:46.819Z,66.90
2022-12-16T08:27:36.874Z,58.13
2022-12-16T08:30:23.344Z,67.00
2022-12-16T08:33:18.293Z,60.20
2022-12-16T08:36:05.763Z,60.40
2022-12-16T08:38:52.151Z,56.20
2022-12-16T08:41:38.606Z,56.50
2022-12-16T08:44:24.543Z,60.33
2022-12-16T08:47:10.232Z,55.73
2022-12-16T08:49:59.628Z,60.83
2022-12-16T08:52:47.656Z,58.83
2022-12-16T08:55:43.339Z,57.07
2022-12-16T08:58:39.888Z,59.10
2022-12-16T09:01:59.374Z,54.57
2022-12-16T09:05:10.789Z,53.43
2022-12-16T09:08:02.666Z,49.50
2022-12-16T09:11:20.045Z,51.80
2022-12-16T09:15:12.380Z,54.77
2022-12-16T09:26:03.598Z,52.93
2022-12-16T09:28:49.320Z,47.23
2022-12-16T09:31:34.886Z,48.47
2022-12-16T09:34:20.945Z,45.47
2022-12-16T09:37:07.094Z,46.00
2022-12-16T09:39:56.132Z,41.83
2022-12-16T09:43:06.373Z,43.60
2022-12-16T09:46:25.492Z,39.90
2022-12-16T09:49:38.442Z,36.13
2022-12-16T09:52:31.386Z,39.83
2022-12-16T09:55:18.474Z,38.60
2022-12-16T09:58:05.189Z,38.10
2022-12-16T10:00:51.467Z,36.03
2022-12-16T10:03:51.427Z,36.07
2022-12-16T10:07:05.298Z,36.20
2022-12-16T10:10:20.910Z,37.53
2022-12-16T10:14:07.383Z,36.93
2022-12-16T10:17:35.565Z,36.77
2022-12-16T10:21:03.389Z,40.47
2022-12-16T10:24:37.538Z,39.13
2022-12-16T10:27:38.264Z,37.97
2022-12-16T10:30:32.965Z,38.80
2022-12-16T10:33:19.371Z,42.30
2022-12-16T10:36:09.694Z,38.80
2022-12-16T10:39:10.099Z,38.30
2022-12-16T10:42:00.232Z,39.77
2022-12-16T10:45:06.167Z,38.10
2022-12-16T10:47:52.864Z,38.80
2022-12-16T10:50:39.390Z,39.23
2022-12-16T10:53:37.305Z,36.23
2022-12-16T10:56:55.125Z,38.00
2022-12-16T10:59:43.522Z,41.63
2022-12-16T11:02:42.484Z,41.53
2022-12-16T11:05:46.987Z,37.70
2022-12-16T11:08:53.261Z,41.67
2022-12-16T11:11:49.573Z,41.20
2022-12-16T11:15:28.194Z,40.87
2022-12-16T11:17:51.140Z,40.17
2022-12-16T11:20:45.028Z,40.70
2022-12-16T11:23:37.460Z,39.90
2022-12-16T11:26:37.412Z,35.87
2022-12-16T11:29:39.042Z,40.07
2022-12-16T11:32:46.838Z,34.43
2022-12-16T11:35:37.688Z,37.63
2022-12-16T11:38:31.378Z,33.57
2022-12-16T11:41:18.540Z,36.70
2022-12-16T11:44:10.637Z,33.97
2022-12-16T11:46:56.420Z,30.97
2022-12-16T11:49:50.835Z,30.73
2022-12-16T11:52:41.323Z,32.93
2022-12-16T11:59:01.482Z,32.77
2022-12-16T12:02:10.287Z,30.23
2022-12-16T12:04:56.119Z,31.37
2022-12-16T12:08:12.514Z,30.03
2022-12-16T12:10:57.894Z,33.20
2022-12-16T12:14:20.179Z,26.90
2022-12-16T12:18:19.503Z,32.23
2022-12-16T12:21:26.568Z,27.17
2022-12-16T12:24:27.117Z,27.53
2022-12-16T12:27:42.092Z,25.60
2022-12-16T12:30:38.484Z,25.83
2022-12-16T12:33:46.559Z,25.00
2022-12-16T12:36:56.592Z,26.70
2022-12-16T12:39:54.587Z,25.40
2022-12-16T12:43:10.946Z,25.90
2022-12-16T12:46:23.080Z,25.47
2022-12-16T12:49:29.959Z,25.37
2022-12-16T12:52:32.346Z,24.93
2022-12-16T12:55:52.510Z,27.03
2022-12-16T12:58:39.839Z,26.63
2022-12-16T13:01:27.655Z,26.30
2022-12-16T13:04:18.818Z,26.03
2022-12-16T13:07:05.963Z,23.77
2022-12-16T13:09:55.368Z,26.57
2022-12-16T13:12:50.817Z,26.17
2022-12-16T13:15:57.235Z,23.20
2022-12-16T13:18:46.080Z,23.70
2022-12-16T13:21:56.892Z,22.37
2022-12-16T13:24:45.667Z,21.70
2022-12-16T13:27:35.599Z,22.97
2022-12-16T13:30:40.793Z,22.90
2022-12-16T13:33:49.973Z,22.03
2022-12-16T13:36:37.806Z,24.00
2022-12-16T13:39:46.193Z,23.10
2022-12-16T13:43:12.649Z,23.17
2022-12-16T13:46:03.356Z,21.70
2022-12-16T13:48:59.607Z,22.43
2022-12-16T13:51:57.144Z,25.33
2022-12-16T13:55:02.072Z,22.77
2022-12-16T13:57:50.702Z,23.10
2022-12-16T14:00:40.653Z,20.93
2022-12-16T14:04:02.240Z,24.50
2022-12-16T14:06:50.757Z,23.87
2022-12-16T14:09:56.512Z,19.60
2022-12-16T14:13:09.775Z,23.43
2022-12-16T14:16:36.402Z,20.50
2022-12-16T14:19:54.299Z,20.73
2022-12-16T14:23:39.157Z,21.20
2022-12-16T14:26:23.528Z,21.23
2022-12-16T14:29:09.150Z,23.13
2022-12-16T14:31:59.348Z,21.20
2022-12-16T14:34:55.905Z,21.53
2022-12-16T14:37:56.834Z,21.17
2022-12-16T14:40:51.749Z,20.93
2022-12-16T14:43:44.502Z,20.73
2022-12-16T14:46:51.262Z,19.97
2022-12-16T14:49:48.362Z,23.27
2022-12-16T14:52:45.956Z,21.77
2022-12-16T14:55:38.554Z,22.87
2022-12-16T14:58:37.524Z,20.93
2022-12-16T15:01:38.501Z,24.13
2022-12-16T15:04:38.278Z,23.40
2022-12-16T15:07:31.473Z,27.30
2022-12-16T15:10:19.209Z,24.83
2022-12-16T15:13:07.773Z,26.40
2022-12-16T15:15:56.226Z,24.63
2022-12-16T15:18:52.919Z,25.60
2022-12-16T15:21:38.766Z,26.90
2022-12-16T15:24:29.722Z,27.13
2022-12-16T15:27:40.215Z,24.43
2022-12-16T15:31:01.439Z,22.83
2022-12-16T15:33:57.872Z,23.87
2022-12-16T15:36:53.214Z,23.67
2022-12-16T15:40:11.234Z,27.10
2022-12-16T15:42:56.980Z,23.03
2022-12-16T15:45:50.512Z,24.83
2022-12-16T15:48:42.921Z,22.73
2022-12-16T15:51:59.900Z,25.13
2022-12-16T15:54:46.003Z,23.33
2022-12-16T15:57:49.695Z,23.40
2022-12-16T16:00:49.861Z,23.90
2022-12-16T16:03:48.415Z,27.50
2022-12-16T16:06:45.121Z,23.47
2022-12-16T16:09:47.274Z,23.67
2022-12-16T16:12:37.120Z,23.87
2022-12-16T16:15:26.377Z,23.53
2022-12-16T16:18:23.961Z,25.07
2022-12-16T16:21:18.275Z,25.57
2022-12-16T16:24:03.763Z,23.93
2022-12-16T16:26:49.852Z,24.53
2022-12-16T16:29:35.696Z,22.50
2022-12-16T16:32:21.630Z,23.87
2022-12-16T16:35:07.498Z,23.40
2022-12-16T16:37:53.261Z,24.37
2022-12-16T16:40:51.669Z,23.73
2022-12-16T16:43:37.616Z,23.73
2022-12-16T16:46:35.219Z,22.47
2022-12-16T16:49:21.142Z,27.70
2022-12-16T16:52:06.872Z,22.70
2022-12-16T16:54:52.492Z,24.70
2022-12-16T16:57:38.264Z,24.10
2022-12-16T17:00:24.607Z,25.60
2022-12-16T17:03:10.449Z,25.37
2022-12-16T17:05:56.569Z,25.70
2022-12-16T17:08:42.645Z,26.90
2022-12-16T17:11:48.486Z,26.47
2022-12-16T17:14:37.948Z,27.10
2022-12-16T17:17:25.485Z,26.07
2022-12-16T17:20:11.416Z,23.30
2022-12-16T17:22:57.488Z,24.03
2022-12-16T17:25:43.668Z,24.33
2022-12-16T17:28:30.508Z,28.03
2022-12-16T17:31:16.346Z,27.50
2022-12-16T17:34:01.959Z,22.87
2022-12-16T17:36:47.704Z,25.37
2022-12-16T17:39:33.356Z,27.70
2022-12-16T17:42:19.204Z,31.17
2022-12-16T17:45:04.865Z,28.17
2022-12-16T17:47:50.859Z,28.07
2022-12-16T17:50:36.865Z,27.23
2022-12-16T17:53:22.651Z,32.30
2022-12-16T17:56:08.699Z,31.47
2022-12-16T17:58:57.227Z,33.50
2022-12-16T18:01:43.570Z,33.70
2022-12-16T18:04:31.671Z,35.83
2022-12-16T18:07:17.602Z,33.57
2022-12-16T18:10:03.271Z,32.93
2022-12-16T18:12:50.093Z,33.60
2022-12-16T18:15:36.024Z,33.77
2022-12-16T18:18:21.877Z,34.43
2022-12-16T18:21:07.885Z,32.20
2022-12-16T18:23:53.843Z,33.77
2022-12-16T18:26:39.644Z,33.43
2022-12-16T18:29:25.516Z,35.27
2022-12-16T18:32:11.314Z,37.37
2022-12-16T18:34:57.186Z,36.10
2022-12-16T18:37:42.981Z,33.13
2022-12-16T18:40:29.280Z,33.57
2022-12-16T18:43:15.139Z,33.87
2022-12-16T18:46:00.926Z,33.73
2022-12-16T18:48:46.905Z,30.10
2022-12-16T18:51:32.740Z,33.90
2022-12-16T18:54:18.327Z,29.80
2022-12-16T18:57:04.345Z,32.40
2022-12-16T18:59:50.145Z,34.97
2022-12-16T19:02:36.077Z,36.07
2022-12-16T19:05:22.219Z,33.63
2022-12-16T19:08:12.610Z,35.17
2022-12-16T19:10:59.935Z,39.33
2022-12-16T19:13:45.635Z,38.07
2022-12-16T19:16:31.571Z,39.23
2022-12-16T19:19:20.217Z,42.73
2022-12-16T19:22:08.854Z,39.93
2022-12-16T19:24:56.325Z,37.53
2022-12-16T19:27:42.397Z,35.20
2022-12-16T19:30:28.907Z,34.77
2022-12-16T19:33:15.277Z,36.67
2022-12-16T19:36:01.014Z,47.37
2022-12-16T19:38:46.991Z,40.73
2022-12-16T19:41:37.523Z,40.17
2022-12-16T19:44:23.857Z,38.27
2022-12-16T19:47:09.573Z,36.77
2022-12-16T19:49:55.009Z,39.67
2022-12-16T19:52:42.327Z,39.80
2022-12-16T19:55:28.420Z,34.87
2022-12-16T19:58:14.669Z,34.47
2022-12-16T20:01:00.463Z,32.50
2022-12-16T20:03:47.204Z,31.00
2022-12-16T20:06:33.152Z,32.03
2022-12-16T20:09:18.812Z,33.40
2022-12-16T20:12:04.784Z,32.57
2022-12-16T20:14:50.544Z,33.93
2022-12-16T20:17:37.051Z,36.33
2022-12-16T20:20:23.423Z,32.87
2022-12-16T20:23:09.146Z,31.03
2022-12-16T20:25:56.357Z,34.63
2022-12-16T20:28:42.414Z,33.80
2022-12-16T20:31:28.021Z,34.90
2022-12-16T20:34:16.760Z,34.87
2022-12-16T20:37:02.722Z,31.73
2022-12-16T20:40:08.261Z,34.83
2022-12-16T20:42:55.244Z,34.83
2022-12-16T20:45:42.259Z,38.47
2022-12-16T20:48:35.638Z,37.23
2022-12-16T20:51:26.936Z,39.00
2022-12-16T21:05:23.432Z,42.37
2022-12-16T21:08:09.456Z,40.80
2022-12-16T21:10:55.984Z,44.73
2022-12-16T21:13:42.011Z,43.67
2022-12-16T21:16:28.261Z,48.03
2022-12-16T21:19:14.096Z,48.67
2022-12-16T21:21:59.980Z,51.97
2022-12-16T21:24:55.263Z,49.93
2022-12-16T21:27:51.249Z,52.30
2022-12-16T21:31:05.804Z,48.83
2022-12-16T21:34:11.761Z,50.83
2022-12-16T21:37:07.471Z,50.47
2022-12-16T21:39:58.396Z,52.30
2022-12-16T21:42:58.552Z,53.47
2022-12-16T21:46:38.371Z,54.50
2022-12-16T21:49:38.276Z,56.33
2022-12-16T21:56:28.024Z,54.47
2022-12-16T21:59:31.400Z,60.67
2022-12-16T22:06:33.953Z,62.77
2022-12-16T22:09:45.572Z,55.43
2022-12-16T22:12:51.907Z,56.03
2022-12-16T22:19:14.059Z,57.07
2022-12-16T22:22:00.415Z,63.60
2022-12-16T22:25:10.959Z,66.10
2022-12-16T22:28:00.070Z,66.87
2022-12-16T22:30:45.989Z,68.27
2022-12-16T22:33:32.535Z,71.03
2022-12-16T22:36:21.687Z,43.10
2022-12-16T22:36:24.278Z,71.20
2022-12-16T22:39:10.416Z,74.23
2022-12-16T22:41:59.439Z,79.47
2022-12-16T22:44:51.355Z,72.67
2022-12-16T22:47:37.651Z,82.97
2022-12-16T22:50:24.033Z,80.47
2022-12-16T22:53:09.852Z,83.03
2022-12-16T22:56:01.673Z,78.17
2022-12-16T22:58:47.810Z,76.87
2022-12-16T23:01:33.839Z,77.73
2022-12-16T23:04:19.969Z,76.27
2022-12-16T23:07:05.847Z,79.93
2022-12-16T23:09:53.187Z,79.27
2022-12-16T23:12:39.855Z,83.93
2022-12-16T23:15:27.046Z,77.17
2022-12-16T23:18:13.168Z,83.37
2022-12-16T23:21:03.519Z,84.97
2022-12-16T23:23:49.364Z,89.60
2022-12-16T23:26:35.964Z,88.27
2022-12-16T23:29:21.622Z,81.20
2022-12-16T23:32:07.316Z,80.70
2022-12-16T23:34:53.135Z,93.00
2022-12-16T23:37:39.983Z,78.23
2022-12-16T23:40:32.317Z,85.97
2022-12-16T23:43:18.833Z,75.40
2022-12-16T23:46:12.050Z,85.30
2022-12-16T23:49:10.161Z,85.40
2022-12-16T23:52:16.612Z,86.27
2022-12-16T23:55:02.991Z,80.30
2022-12-16T23:58:21.980Z,85.13
